Time;durP1;ratioP1;P1;durP2;ratioP2;P2;SDS_P1;SDS_P2;PMS_P1;PMS_P2;Temp;Humidity;BMP_temperature;BMP_pressure;BME280_temperature;BME280_humidity;BME280_pressure;Samples;Min_cycle;Max_cycle;Signal;HPM_P1;HPM_P2
2022/06/27 00:00:09;;;;;;;10.70;10.40;;;22.70;99.90;;;;;;5059582;28;20313;-83
2022/06/27 00:02:37;;;;;;;10.90;10.60;;;22.70;99.90;;;;;;5059132;28;20333;-83
2022/06/27 00:05:07;;;;;;;10.90;10.60;;;22.70;99.90;;;;;;5059303;28;20231;-83
2022/06/27 00:07:34;;;;;;;10.60;10.30;;;22.60;99.90;;;;;;5059615;28;20289;-83
2022/06/27 00:10:02;;;;;;;10.60;10.30;;;22.60;99.90;;;;;;5059402;28;20230;-83
2022/06/27 00:12:31;;;;;;;10.70;10.40;;;22.50;99.90;;;;;;5059114;28;20234;-83
2022/06/27 00:14:59;;;;;;;10.57;10.27;;;22.50;99.90;;;;;;5070135;28;20359;-83
2022/06/27 00:17:27;;;;;;;10.45;10.15;;;22.40;99.90;;;;;;5080707;28;20242;-83
2022/06/27 00:19:55;;;;;;;10.60;10.30;;;22.40;99.90;;;;;;5080869;28;20214;-83
2022/06/27 00:22:23;;;;;;;10.57;10.27;;;22.40;99.90;;;;;;5080401;28;20233;-83
2022/06/27 00:24:50;;;;;;;10.50;10.20;;;22.30;99.90;;;;;;5080567;28;20222;-83
2022/06/27 00:27:18;;;;;;;10.30;10.00;;;22.30;99.90;;;;;;5080351;28;20426;-83
2022/06/27 00:29:47;;;;;;;10.18;9.88;;;22.30;99.90;;;;;;5079862;28;20219;-83
2022/06/27 00:32:16;;;;;;;10.40;10.10;;;22.30;99.90;;;;;;5078491;28;20266;-83
2022/06/27 00:34:43;;;;;;;10.20;9.90;;;22.20;99.90;;;;;;5067840;28;20297;-84
2022/06/27 00:37:11;;;;;;;10.23;9.93;;;22.20;99.90;;;;;;5062955;28;20227;-84
2022/06/27 00:39:38;;;;;;;10.15;9.85;;;22.10;99.90;;;;;;5062160;28;20284;-83
2022/06/27 00:42:07;;;;;;;10.10;9.80;;;22.10;99.90;;;;;;5062814;28;20243;-83
2022/06/27 00:44:36;;;;;;;10.40;10.10;;;22.10;99.90;;;;;;5061342;28;20219;-83
2022/06/27 00:47:07;;;;;;;10.27;9.98;;;22.00;99.90;;;;;;5061893;28;20238;-83
2022/06/27 00:49:36;;;;;;;10.10;9.80;;;22.00;99.90;;;;;;5061755;28;20226;-83
2022/06/27 00:52:06;;;;;;;10.10;9.80;;;21.90;99.90;;;;;;5060883;28;20318;-83
2022/06/27 00:54:36;;;;;;;10.00;9.70;;;21.90;99.90;;;;;;5061044;28;20230;-83
2022/06/27 00:57:04;;;;;;;9.98;9.68;;;21.90;99.90;;;;;;5060789;28;20330;-83
2022/06/27 00:59:31;;;;;;;9.90;9.60;;;21.80;99.90;;;;;;5058217;28;20241;-83
2022/06/27 01:02:01;;;;;;;9.90;9.60;;;21.80;99.90;;;;;;5057936;28;20223;-83
2022/06/27 01:04:31;;;;;;;10.00;9.70;;;21.80;99.90;;;;;;5058183;28;20254;-83
2022/06/27 01:06:59;;;;;;;10.13;9.82;;;21.60;99.90;;;;;;5058750;28;20278;-83
2022/06/27 01:09:27;;;;;;;10.20;9.90;;;21.50;99.90;;;;;;5058080;28;20230;-83
2022/06/27 01:11:54;;;;;;;10.30;10.00;;;21.40;99.90;;;;;;5057657;28;20245;-83
2022/06/27 01:14:22;;;;;;;10.30;10.00;;;21.30;99.90;;;;;;5056179;28;20326;-83
2022/06/27 01:16:50;;;;;;;10.20;9.90;;;21.30;99.90;;;;;;5057707;28;20326;-83
2022/06/27 01:19:19;;;;;;;10.25;9.95;;;21.20;99.90;;;;;;5057684;28;20238;-83
2022/06/27 01:21:50;;;;;;;10.15;9.85;;;21.20;99.90;;;;;;5057385;28;20235;-83
2022/06/27 01:24:21;;;;;;;10.25;9.95;;;21.20;99.90;;;;;;5056500;28;20242;-83
2022/06/27 01:26:49;;;;;;;10.07;9.77;;;21.20;99.90;;;;;;5057392;28;20235;-83
2022/06/27 01:29:18;;;;;;;10.20;9.90;;;21.10;99.90;;;;;;5057431;28;20330;-83
2022/06/27 01:31:45;;;;;;;10.00;9.70;;;21.10;99.90;;;;;;5057036;28;20302;-83
2022/06/27 01:34:15;;;;;;;9.90;9.60;;;21.10;99.90;;;;;;5057065;28;20238;-83
2022/06/27 01:36:43;;;;;;;9.90;9.60;;;21.10;99.90;;;;;;5056699;28;20237;-83
2022/06/27 01:39:13;;;;;;;9.98;9.68;;;21.10;99.90;;;;;;5056730;28;20238;-83
2022/06/27 01:41:45;;;;;;;9.90;9.60;;;21.00;99.90;;;;;;5057305;28;20227;-83
2022/06/27 01:44:13;;;;;;;9.98;9.68;;;21.00;99.90;;;;;;5056901;28;20235;-83
2022/06/27 01:46:47;;;;;;;10.13;9.82;;;21.00;99.90;;;;;;5056999;28;20230;-83
2022/06/27 01:49:17;;;;;;;10.05;9.75;;;21.00;99.90;;;;;;5057181;28;20322;-83
2022/06/27 01:51:47;;;;;;;10.13;9.82;;;21.00;99.90;;;;;;5057308;28;20235;-82
2022/06/27 01:54:17;;;;;;;9.98;9.68;;;21.00;99.90;;;;;;5056764;28;20261;-83
2022/06/27 01:56:49;;;;;;;10.15;9.85;;;21.00;99.90;;;;;;5056476;28;20234;-83
2022/06/27 01:59:19;;;;;;;9.90;9.60;;;20.90;99.90;;;;;;5057071;28;20267;-82
2022/06/27 02:01:47;;;;;;;9.93;9.63;;;20.90;99.90;;;;;;5056381;28;20231;-82
2022/06/27 02:04:16;;;;;;;10.00;9.70;;;20.60;99.90;;;;;;5055956;28;20230;-82
2022/06/27 02:06:46;;;;;;;10.10;9.80;;;20.50;99.90;;;;;;5057102;28;20257;-82
2022/06/27 02:09:16;;;;;;;10.10;9.80;;;20.30;99.90;;;;;;5056398;28;20334;-82
2022/06/27 02:11:48;;;;;;;10.00;9.70;;;20.30;99.90;;;;;;5056445;28;20706;-82
2022/06/27 02:14:16;;;;;;;9.98;9.68;;;20.30;99.90;;;;;;5056605;28;20235;-82
2022/06/27 02:16:44;;;;;;;9.90;9.60;;;20.40;99.90;;;;;;5057546;28;20231;-82
2022/06/27 02:19:13;;;;;;;10.32;10.02;;;20.40;99.90;;;;;;5056016;28;20265;-82
2022/06/27 02:21:42;;;;;;;10.00;9.70;;;20.50;99.90;;;;;;5056261;28;20230;-82
2022/06/27 02:24:11;;;;;;;10.00;9.70;;;20.50;99.90;;;;;;5055463;28;20321;-82
2022/06/27 02:26:40;;;;;;;9.85;9.55;;;20.60;99.90;;;;;;5058907;28;20241;-82
2022/06/27 02:29:09;;;;;;;9.80;9.50;;;20.60;99.90;;;;;;5059177;28;20252;-82
2022/06/27 02:31:45;;;;;;;10.00;9.70;;;20.60;99.90;;;;;;5058811;28;20746;-82
2022/06/27 02:34:15;;;;;;;10.23;9.93;;;20.60;99.90;;;;;;5059471;28;20234;-82
2022/06/27 02:36:43;;;;;;;10.15;9.85;;;20.50;99.90;;;;;;5060054;28;20405;-83
2022/06/27 02:39:13;;;;;;;10.00;9.70;;;20.50;99.90;;;;;;5060470;28;20235;-82
2022/06/27 02:41:42;;;;;;;10.05;9.75;;;20.60;99.90;;;;;;5063096;28;20231;-81
2022/06/27 02:44:14;;;;;;;10.00;9.70;;;20.60;99.90;;;;;;5071080;28;20322;-82
2022/06/27 02:46:42;;;;;;;10.25;9.95;;;20.70;99.90;;;;;;5069446;28;20234;-82
2022/06/27 02:49:11;;;;;;;10.20;9.90;;;20.60;99.90;;;;;;5069254;28;20238;-81
2022/06/27 02:51:50;;;;;;;10.20;9.90;;;20.50;99.90;;;;;;5065523;28;20226;-82
2022/06/27 02:54:22;;;;;;;10.50;10.20;;;20.30;99.90;;;;;;5067976;28;20234;-82
2022/06/27 02:56:58;;;;;;;10.50;10.20;;;20.20;99.90;;;;;;5072349;28;20299;-82
2022/06/27 02:59:34;;;;;;;10.40;10.10;;;20.00;99.90;;;;;;5075371;28;20325;-81
2022/06/27 03:02:03;;;;;;;10.60;10.30;;;19.90;99.90;;;;;;5077779;28;20229;-81
2022/06/27 03:04:31;;;;;;;10.65;10.35;;;19.80;99.90;;;;;;5078313;28;20290;-81
2022/06/27 03:06:58;;;;;;;10.77;10.48;;;19.70;99.90;;;;;;5080939;28;20228;-81
2022/06/27 03:09:26;;;;;;;10.80;10.50;;;19.50;99.90;;;;;;5078856;28;20219;-82
2022/06/27 03:11:53;;;;;;;10.63;10.32;;;19.40;99.90;;;;;;5078801;28;20243;-82
2022/06/27 03:14:21;;;;;;;10.68;10.38;;;19.40;99.90;;;;;;5078567;28;20303;-82
2022/06/27 03:16:50;;;;;;;10.60;10.30;;;19.40;99.90;;;;;;5079639;28;20261;-82
2022/06/27 03:19:18;;;;;;;10.55;10.25;;;19.40;99.90;;;;;;5080975;28;20243;-81
2022/06/27 03:21:46;;;;;;;10.45;10.15;;;19.40;99.90;;;;;;5080883;28;20223;-81
2022/06/27 03:24:16;;;;;;;10.63;10.32;;;19.30;99.90;;;;;;5081256;28;20215;-81
2022/06/27 03:26:43;;;;;;;10.45;10.15;;;19.20;99.90;;;;;;5081074;28;20242;-81
2022/06/27 03:29:11;;;;;;;10.68;10.38;;;19.10;99.90;;;;;;5081806;28;20230;-81
2022/06/27 03:31:38;;;;;;;10.77;10.48;;;19.00;99.90;;;;;;5081418;28;20258;-81
2022/06/27 03:34:07;;;;;;;10.77;10.48;;;19.00;99.90;;;;;;5081460;28;20282;-81
2022/06/27 03:36:35;;;;;;;10.50;10.20;;;19.00;99.90;;;;;;5080390;28;20250;-81
2022/06/27 03:39:02;;;;;;;10.40;10.10;;;19.00;99.90;;;;;;5079468;28;20242;-81
2022/06/27 03:41:29;;;;;;;10.50;10.20;;;19.00;99.90;;;;;;5077940;28;20257;-81
2022/06/27 03:43:57;;;;;;;10.52;10.23;;;19.00;99.90;;;;;;5075934;28;20321;-81
2022/06/27 03:46:25;;;;;;;10.20;9.90;;;19.10;99.90;;;;;;5072854;28;20353;-81
2022/06/27 03:51:39;;;;;;;10.10;9.80;;;19.00;99.90;;;;;;5065174;28;20218;-81
2022/06/27 03:54:06;;;;;;;10.00;9.70;;;19.00;99.90;;;;;;5062957;28;20253;-81
2022/06/27 03:56:34;;;;;;;10.30;10.00;;;19.00;99.90;;;;;;5063348;28;20265;-81
2022/06/27 03:59:01;;;;;;;10.32;10.02;;;19.00;99.90;;;;;;5064152;28;20231;-81
2022/06/27 04:01:29;;;;;;;10.40;10.10;;;19.00;99.90;;;;;;5062678;28;20235;-81
2022/06/27 04:03:56;;;;;;;10.15;9.85;;;19.00;99.90;;;;;;5060851;28;20245;-81
2022/06/27 04:06:23;;;;;;;10.40;10.10;;;18.90;99.90;;;;;;5060719;28;20298;-81
2022/06/27 04:08:52;;;;;;;10.38;10.07;;;19.00;99.90;;;;;;5063706;28;20295;-81
2022/06/27 04:11:20;;;;;;;10.45;10.15;;;19.00;99.90;;;;;;5059814;28;20233;-81
2022/06/27 04:13:47;;;;;;;10.50;10.20;;;19.00;99.90;;;;;;5062393;28;20322;-81
2022/06/27 04:16:15;;;;;;;10.65;10.35;;;19.00;99.90;;;;;;5060092;28;20245;-81
2022/06/27 04:18:42;;;;;;;10.60;10.30;;;19.00;99.90;;;;;;5060202;28;20302;-81
2022/06/27 04:21:10;;;;;;;10.73;10.43;;;19.00;99.90;;;;;;5059976;28;20219;-81
2022/06/27 04:23:40;;;;;;;10.70;10.40;;;19.00;99.90;;;;;;5060188;28;20245;-81
2022/06/27 04:26:09;;;;;;;11.07;10.68;;;18.90;99.90;;;;;;5060214;28;20231;-81
2022/06/27 04:28:37;;;;;;;10.65;10.35;;;19.00;99.90;;;;;;5059726;28;20227;-81
2022/06/27 04:31:04;;;;;;;10.75;10.45;;;19.10;99.90;;;;;;5058862;28;20295;-81
2022/06/27 04:33:32;;;;;;;10.60;10.30;;;19.10;99.90;;;;;;5058648;28;20309;-81
2022/06/27 04:36:00;;;;;;;10.63;10.32;;;19.10;99.90;;;;;;5058678;28;20238;-81
2022/06/27 04:38:28;;;;;;;10.80;10.50;;;19.20;99.90;;;;;;5059086;28;20257;-81
2022/06/27 04:40:56;;;;;;;10.80;10.50;;;19.20;99.90;;;;;;5058667;28;20235;-81
2022/06/27 04:43:26;;;;;;;9.50;9.20;;;19.20;99.90;;;;;;5058677;28;20246;-81
2022/06/27 04:45:54;;;;;;;9.10;8.80;;;19.30;99.90;;;;;;5058958;28;20254;-81
2022/06/27 04:48:21;;;;;;;8.60;8.40;;;19.40;99.90;;;;;;5058769;28;20245;-81
2022/06/27 04:50:49;;;;;;;8.80;8.60;;;19.50;99.90;;;;;;5058994;28;20321;-81
2022/06/27 04:53:18;;;;;;;8.90;8.65;;;19.60;99.90;;;;;;5058445;28;20250;-81
2022/06/27 04:55:46;;;;;;;9.00;8.70;;;19.70;99.90;;;;;;5058795;28;20310;-81
2022/06/27 04:58:15;;;;;;;9.00;8.70;;;19.80;99.90;;;;;;5059271;28;20261;-81
2022/06/27 05:00:44;;;;;;;8.60;8.40;;;20.00;99.90;;;;;;5059193;28;20223;-81
2022/06/27 05:03:12;;;;;;;8.60;8.40;;;20.10;99.90;;;;;;5085838;22;20262;-79
2022/06/27 05:05:39;;;;;;;8.60;8.40;;;20.20;99.90;;;;;;5077299;28;20234;-80
2022/06/27 05:08:07;;;;;;;8.60;8.40;;;20.20;99.90;;;;;;5077704;28;20324;-80
2022/06/27 05:10:34;;;;;;;8.30;8.10;;;20.30;99.90;;;;;;5078176;28;20332;-80
2022/06/27 05:13:02;;;;;;;8.68;8.48;;;20.40;99.90;;;;;;5071594;28;20329;-80
2022/06/27 05:15:30;;;;;;;8.52;8.32;;;20.50;99.90;;;;;;5057170;28;20276;-80
2022/06/27 05:18:01;;;;;;;8.30;8.10;;;20.60;99.90;;;;;;5057355;28;20230;-79
2022/06/27 05:20:30;;;;;;;8.50;8.30;;;20.60;99.90;;;;;;5057523;28;20253;-80
2022/06/27 05:23:00;;;;;;;8.50;8.30;;;20.60;99.90;;;;;;5057231;28;20219;-80
2022/06/27 05:25:27;;;;;;;8.60;8.40;;;20.60;99.90;;;;;;5058950;28;20260;-80
2022/06/27 05:27:56;;;;;;;8.68;8.48;;;20.60;99.90;;;;;;5059149;28;20230;-80
2022/06/27 05:30:23;;;;;;;8.60;8.40;;;20.50;99.90;;;;;;5058825;28;20238;-80
2022/06/27 05:32:51;;;;;;;8.60;8.40;;;20.50;99.90;;;;;;5058746;28;20290;-80
2022/06/27 05:35:21;;;;;;;8.38;8.18;;;20.50;99.90;;;;;;5058688;28;20266;-80
2022/06/27 05:37:53;;;;;;;8.52;8.32;;;20.60;99.90;;;;;;5070407;28;20258;-80
2022/06/27 05:40:22;;;;;;;8.52;8.32;;;20.60;99.90;;;;;;5063261;28;20227;-80
2022/06/27 05:42:49;;;;;;;8.55;8.35;;;20.60;99.90;;;;;;5063169;28;20234;-80
2022/06/27 05:45:18;;;;;;;8.48;8.27;;;20.60;99.90;;;;;;5061577;28;20303;-80
2022/06/27 05:47:46;;;;;;;8.30;8.10;;;20.60;99.90;;;;;;5061182;28;20339;-80
2022/06/27 05:50:14;;;;;;;8.52;8.32;;;20.50;99.90;;;;;;5071655;28;20239;-80
2022/06/27 05:52:43;;;;;;;8.45;8.25;;;20.50;99.90;;;;;;5073149;28;20279;-80
2022/06/27 05:55:11;;;;;;;8.50;8.30;;;20.50;99.90;;;;;;5068790;28;20235;-80
2022/06/27 05:57:39;;;;;;;8.35;8.15;;;20.50;99.90;;;;;;5064070;28;20226;-80
2022/06/27 06:00:09;;;;;;;8.60;8.40;;;20.60;99.90;;;;;;5066689;28;20277;-80
2022/06/27 06:02:36;;;;;;;8.65;8.45;;;20.60;99.90;;;;;;5074290;28;20221;-80
2022/06/27 06:05:06;;;;;;;8.55;8.35;;;20.60;99.90;;;;;;5078477;28;20285;-81
2022/06/27 06:07:34;;;;;;;8.70;8.50;;;20.70;99.90;;;;;;5079501;28;20218;-80
2022/06/27 06:10:04;;;;;;;8.55;8.35;;;20.80;99.90;;;;;;5078998;28;20226;-81
2022/06/27 06:12:32;;;;;;;8.75;8.55;;;20.80;99.90;;;;;;5078774;28;20270;-80
2022/06/27 06:15:02;;;;;;;8.50;8.30;;;20.90;99.90;;;;;;5077616;28;20285;-80
2022/06/27 06:17:31;;;;;;;7.97;7.78;;;21.00;99.90;;;;;;5076078;28;20233;-80
2022/06/27 06:19:59;;;;;;;8.23;8.02;;;21.10;99.90;;;;;;5066840;28;20325;-80
2022/06/27 06:22:27;;;;;;;8.52;8.32;;;21.20;99.90;;;;;;5057772;28;20237;-80
2022/06/27 06:24:55;;;;;;;8.30;8.10;;;21.30;99.90;;;;;;5059008;28;20309;-80
2022/06/27 06:27:24;;;;;;;8.30;8.10;;;21.40;99.90;;;;;;5061667;28;20234;-80
2022/06/27 06:29:51;;;;;;;8.50;8.30;;;21.40;99.90;;;;;;5059669;28;20298;-81
2022/06/27 06:32:19;;;;;;;8.52;8.32;;;21.50;99.90;;;;;;5059523;28;20234;-81
2022/06/27 06:34:47;;;;;;;8.50;8.30;;;21.60;99.90;;;;;;5058799;28;20302;-81
2022/06/27 06:37:14;;;;;;;8.30;8.10;;;21.70;99.90;;;;;;5058921;28;20250;-80
2022/06/27 06:39:42;;;;;;;8.40;8.20;;;21.90;99.90;;;;;;5062201;28;20231;-80
2022/06/27 06:42:10;;;;;;;8.30;8.10;;;22.00;99.90;;;;;;5063430;28;20228;-79
2022/06/27 06:44:39;;;;;;;8.50;8.30;;;22.10;99.90;;;;;;5057915;28;20270;-80
2022/06/27 06:47:08;;;;;;;8.30;8.10;;;22.20;99.90;;;;;;5056762;28;20238;-80
2022/06/27 06:49:36;;;;;;;8.60;8.40;;;22.20;99.90;;;;;;5058246;28;20227;-80
2022/06/27 06:52:04;;;;;;;8.65;8.45;;;22.40;99.90;;;;;;5059422;28;20235;-80
2022/06/27 06:54:32;;;;;;;8.50;8.30;;;22.50;99.90;;;;;;5058716;28;20234;-80
2022/06/27 06:56:59;;;;;;;8.10;7.90;;;22.60;99.90;;;;;;5058866;28;20244;-80
2022/06/27 06:59:27;;;;;;;8.32;8.13;;;22.70;99.90;;;;;;5059488;28;20329;-80
2022/06/27 07:01:56;;;;;;;8.13;7.93;;;22.80;99.90;;;;;;5057933;28;20289;-81
2022/06/27 07:04:25;;;;;;;8.20;8.00;;;22.90;99.90;;;;;;5057758;28;20258;-80
2022/06/27 07:06:54;;;;;;;8.20;8.00;;;23.00;99.90;;;;;;5059494;28;20241;-80
2022/06/27 07:09:21;;;;;;;8.40;8.20;;;23.10;99.90;;;;;;5063939;28;20218;-80
2022/06/27 07:11:50;;;;;;;8.50;8.30;;;23.20;99.90;;;;;;5058228;28;20254;-81
2022/06/27 07:14:18;;;;;;;8.60;8.40;;;23.30;99.90;;;;;;5060505;28;20238;-81
2022/06/27 07:16:46;;;;;;;8.60;8.40;;;23.50;99.90;;;;;;5061965;28;20234;-81
2022/06/27 07:19:16;;;;;;;8.40;8.20;;;23.70;99.90;;;;;;5061227;28;20250;-80
2022/06/27 07:21:43;;;;;;;8.50;8.30;;;23.80;99.90;;;;;;5061334;28;20277;-81
2022/06/27 07:24:11;;;;;;;8.70;8.50;;;23.90;99.90;;;;;;5060556;28;20257;-81
2022/06/27 07:26:38;;;;;;;8.55;8.35;;;24.20;99.90;;;;;;5061468;28;20222;-81
2022/06/27 07:29:06;;;;;;;8.20;8.00;;;24.30;99.90;;;;;;5061911;28;20282;-81
2022/06/27 07:31:34;;;;;;;8.30;8.10;;;24.40;99.90;;;;;;5063267;28;20211;-81
2022/06/27 07:34:02;;;;;;;8.40;8.20;;;24.60;99.90;;;;;;5062469;28;20321;-81
2022/06/27 07:36:32;;;;;;;8.50;8.30;;;24.50;99.90;;;;;;5061995;28;20235;-81
2022/06/27 07:38:59;;;;;;;8.48;8.27;;;24.50;99.90;;;;;;5062604;28;20234;-81
2022/06/27 07:41:30;;;;;;;8.70;8.50;;;24.40;99.90;;;;;;5062252;28;20278;-81
2022/06/27 07:43:58;;;;;;;8.70;8.50;;;24.40;99.90;;;;;;5062145;28;20258;-81
2022/06/27 07:46:25;;;;;;;8.50;8.30;;;24.50;99.90;;;;;;5065395;28;20235;-80
2022/06/27 07:48:53;;;;;;;8.30;8.10;;;24.50;99.90;;;;;;5070523;28;20321;-80
2022/06/27 07:51:20;;;;;;;8.32;8.13;;;24.70;99.90;;;;;;5065204;28;20277;-81
2022/06/27 07:53:51;;;;;;;8.65;8.45;;;24.60;99.90;;;;;;5061077;28;21069;-80
2022/06/27 07:56:23;;;;;;;8.60;8.40;;;24.60;99.90;;;;;;5060481;28;20241;-80
2022/06/27 07:58:51;;;;;;;8.30;8.10;;;24.50;99.90;;;;;;5060531;28;20245;-80
2022/06/27 08:01:19;;;;;;;8.27;8.07;;;24.60;99.90;;;;;;5061475;28;20227;-80
2022/06/27 08:03:49;;;;;;;8.50;8.30;;;24.70;99.90;;;;;;5059960;28;20242;-80
2022/06/27 08:06:20;;;;;;;8.57;8.38;;;24.40;99.90;;;;;;5060282;28;20231;-80
2022/06/27 08:08:52;;;;;;;8.48;8.27;;;24.40;99.90;;;;;;5060594;28;20254;-80
2022/06/27 08:11:22;;;;;;;8.48;8.27;;;24.40;99.90;;;;;;5059983;28;20254;-80
2022/06/27 08:13:52;;;;;;;8.60;8.40;;;24.50;99.90;;;;;;5061170;28;20245;-80
2022/06/27 08:16:21;;;;;;;8.90;8.70;;;24.50;99.90;;;;;;5062933;28;20230;-80
2022/06/27 08:18:50;;;;;;;8.60;8.40;;;24.60;99.90;;;;;;5061715;28;20234;-80
2022/06/27 08:21:20;;;;;;;8.30;8.10;;;24.60;99.90;;;;;;5061429;28;20227;-80
2022/06/27 08:23:51;;;;;;;8.10;7.90;;;24.40;99.90;;;;;;5061298;28;20249;-80
2022/06/27 08:26:21;;;;;;;8.32;8.13;;;24.40;99.90;;;;;;5061459;28;20283;-80
2022/06/27 08:28:49;;;;;;;8.43;8.23;;;24.30;99.90;;;;;;5060923;28;20257;-80
2022/06/27 08:31:16;;;;;;;8.40;8.20;;;24.30;99.90;;;;;;5060005;28;20223;-80
2022/06/27 08:33:46;;;;;;;8.55;8.35;;;24.40;99.90;;;;;;5061245;28;20365;-80
2022/06/27 08:36:17;;;;;;;8.77;8.57;;;24.50;99.90;;;;;;5065710;28;20250;-80
2022/06/27 08:38:48;;;;;;;8.30;8.10;;;24.60;99.90;;;;;;5071575;28;20230;-80
2022/06/27 08:41:18;;;;;;;8.68;8.48;;;24.50;99.90;;;;;;5070926;28;20294;-80
2022/06/27 08:43:47;;;;;;;8.50;8.30;;;24.50;99.90;;;;;;5061926;28;20234;-80
2022/06/27 08:46:16;;;;;;;8.23;8.02;;;24.40;99.90;;;;;;5061825;28;20246;-80
2022/06/27 08:48:47;;;;;;;8.40;8.20;;;24.30;99.90;;;;;;5061954;28;20235;-80
2022/06/27 08:51:15;;;;;;;8.40;8.20;;;24.30;99.90;;;;;;5068472;28;20207;-80
2022/06/27 08:53:43;;;;;;;8.50;8.30;;;24.40;99.90;;;;;;5079934;28;20283;-80
2022/06/27 08:56:13;;;;;;;8.70;8.50;;;24.40;99.90;;;;;;5079665;28;20236;-80
2022/06/27 08:58:46;;;;;;;8.50;8.30;;;24.50;99.90;;;;;;5062330;28;20226;-80
2022/06/27 09:01:17;;;;;;;8.27;8.07;;;24.50;99.90;;;;;;5056491;28;20318;-80
2022/06/27 09:04:00;;;;;;;8.35;8.15;;;24.60;99.90;;;;;;5056375;28;20243;-80
2022/06/27 09:06:30;;;;;;;8.43;8.23;;;24.30;99.90;;;;;;5057608;28;20227;-80
2022/06/27 09:09:08;;;;;;;8.30;8.10;;;24.30;99.90;;;;;;5058103;28;20258;-80
2022/06/27 09:11:39;;;;;;;8.38;8.18;;;24.50;99.90;;;;;;5060196;28;20277;-80
2022/06/27 09:14:33;;;;;;;8.40;8.20;;;24.20;99.90;;;;;;5060855;28;20235;-80
2022/06/27 09:17:04;;;;;;;8.32;8.13;;;24.10;99.90;;;;;;5060621;28;20231;-80
2022/06/27 09:19:53;;;;;;;8.50;8.30;;;24.30;99.90;;;;;;5061064;28;20233;-80
2022/06/27 09:22:23;;;;;;;8.40;8.20;;;24.50;99.90;;;;;;5059814;28;20222;-80
2022/06/27 09:25:06;;;;;;;8.20;8.00;;;24.40;99.90;;;;;;5059874;28;20253;-80
2022/06/27 09:27:43;;;;;;;8.13;7.93;;;24.40;99.90;;;;;;5060224;28;20230;-80
2022/06/27 09:30:26;;;;;;;8.20;8.00;;;24.60;99.90;;;;;;5061309;28;20234;-80
2022/06/27 09:32:56;;;;;;;7.85;7.65;;;24.90;99.90;;;;;;5060249;28;20234;-81
2022/06/27 09:35:27;;;;;;;8.20;8.00;;;24.80;99.90;;;;;;5059896;28;20234;-80
2022/06/27 09:37:57;;;;;;;8.75;8.55;;;24.80;99.90;;;;;;5059877;28;20290;-80
2022/06/27 09:40:26;;;;;;;8.50;8.30;;;25.10;99.90;;;;;;5060910;28;20230;-80
2022/06/27 09:42:56;;;;;;;8.55;8.35;;;25.30;99.90;;;;;;5075776;28;20222;-79
2022/06/27 09:45:28;;;;;;;8.80;8.60;;;25.00;99.90;;;;;;5074265;28;20325;-80
2022/06/27 09:48:02;;;;;;;8.60;8.40;;;25.10;99.90;;;;;;5075155;28;20291;-80
2022/06/27 09:50:33;;;;;;;8.27;8.07;;;25.30;99.90;;;;;;5073249;28;20232;-80
2022/06/27 09:53:02;;;;;;;8.65;8.45;;;25.20;99.90;;;;;;5071917;28;20230;-81
2022/06/27 09:55:31;;;;;;;9.00;8.80;;;25.20;99.90;;;;;;5064359;28;20305;-80
2022/06/27 09:57:59;;;;;;;8.40;8.20;;;25.30;99.90;;;;;;5063274;28;20243;-80
2022/06/27 10:00:29;;;;;;;8.52;8.32;;;25.50;99.90;;;;;;5062108;28;20301;-80
2022/06/27 10:02:57;;;;;;;8.18;7.97;;;25.20;99.90;;;;;;5061406;28;20257;-80
2022/06/27 10:05:24;;;;;;;8.20;8.00;;;25.10;99.90;;;;;;5061619;28;20257;-80
2022/06/27 10:07:58;;;;;;;8.20;8.00;;;25.00;99.90;;;;;;5060367;28;20231;-79
2022/06/27 10:10:25;;;;;;;8.50;8.30;;;25.20;99.90;;;;;;5060311;28;20219;-78
2022/06/27 10:13:01;;;;;;;8.52;8.32;;;25.50;99.90;;;;;;5061182;28;20294;-79
2022/06/27 10:15:31;;;;;;;8.57;8.38;;;25.40;99.90;;;;;;5060798;28;20236;-79
2022/06/27 10:18:01;;;;;;;8.70;8.50;;;25.50;99.90;;;;;;5060204;28;20330;-78
2022/06/27 10:20:37;;;;;;;8.70;8.50;;;25.80;99.90;;;;;;5060095;28;20226;-78
2022/06/27 10:23:28;;;;;;;8.90;8.70;;;26.20;99.90;;;;;;5060362;28;20334;-78
2022/06/27 10:25:57;;;;;;;8.88;8.68;;;26.30;99.90;;;;;;5060384;28;20230;-78
2022/06/27 10:28:25;;;;;;;8.80;8.60;;;26.50;99.90;;;;;;5060457;28;20294;-78
2022/06/27 10:30:56;;;;;;;8.90;8.70;;;26.50;99.90;;;;;;5059933;28;20258;-78
2022/06/27 10:33:41;;;;;;;9.20;8.90;;;26.60;99.90;;;;;;5059769;28;20333;-78
2022/06/27 10:36:15;;;;;;;9.38;9.07;;;26.70;99.90;;;;;;5065008;28;20277;-78
2022/06/27 10:38:55;;;;;;;9.27;8.98;;;26.80;99.90;;;;;;5064920;28;20289;-79
2022/06/27 10:41:42;;;;;;;9.23;8.93;;;27.20;99.90;;;;;;5060286;28;20257;-79
2022/06/27 10:44:31;;;;;;;9.23;8.93;;;27.40;99.90;;;;;;5060119;28;20253;-79
2022/06/27 10:47:03;;;;;;;9.20;8.90;;;27.50;99.90;;;;;;5077860;28;20223;-77
2022/06/27 10:49:32;;;;;;;9.20;8.90;;;27.60;99.90;;;;;;5082136;28;20282;-77
2022/06/27 10:52:33;;;;;;;9.10;8.80;;;27.50;99.90;;;;;;5080279;28;20286;-78
2022/06/27 10:55:01;;;;;;;9.48;9.18;;;27.30;99.90;;;;;;5059178;28;20274;-79
2022/06/27 10:57:44;;;;;;;9.40;9.10;;;27.50;99.90;;;;;;5058907;28;20238;-79
2022/06/27 11:00:37;;;;;;;9.38;9.07;;;27.50;99.90;;;;;;5059644;28;20230;-78
2022/06/27 11:03:08;;;;;;;9.48;9.18;;;27.60;99.90;;;;;;5079497;22;20262;-79
2022/06/27 11:06:00;;;;;;;9.35;9.05;;;28.00;99.90;;;;;;5097936;28;20214;-78
2022/06/27 11:08:29;;;;;;;9.38;9.07;;;28.10;99.90;;;;;;5101372;28;20326;-78
2022/06/27 11:10:56;;;;;;;8.85;8.65;;;27.70;99.90;;;;;;5100712;28;20290;-78
2022/06/27 11:13:45;;;;;;;9.32;9.02;;;27.40;99.90;;;;;;5096357;28;20241;-78
2022/06/27 11:16:18;;;;;;;9.20;8.90;;;27.90;99.90;;;;;;5080388;28;20215;-78
2022/06/27 11:18:50;;;;;;;9.48;9.18;;;28.30;99.90;;;;;;5081022;28;20258;-81
2022/06/27 11:21:20;;;;;;;9.10;8.80;;;28.10;99.90;;;;;;5081111;28;20219;-80
2022/06/27 11:23:57;;;;;;;8.80;8.60;;;28.10;99.90;;;;;;5080807;28;20235;-80
2022/06/27 11:26:27;;;;;;;8.80;8.60;;;27.90;99.90;;;;;;5081480;28;20255;-80
2022/06/27 11:31:58;;;;;;;10.48;10.18;;;28.00;99.90;;;;;;5080803;28;20226;-81
2022/06/27 11:34:30;;;;;;;10.60;10.30;;;28.00;99.90;;;;;;5068698;28;20227;-81
2022/06/27 11:36:59;;;;;;;10.40;10.10;;;27.70;99.90;;;;;;5068860;28;20233;-81
2022/06/27 11:39:29;;;;;;;10.38;10.07;;;27.60;99.90;;;;;;5068568;28;20223;-81
2022/06/27 11:41:58;;;;;;;10.10;9.80;;;27.80;99.90;;;;;;5069457;28;20257;-81
2022/06/27 11:44:28;;;;;;;10.10;9.80;;;27.90;99.90;;;;;;5068114;28;20282;-81
2022/06/27 11:47:05;;;;;;;10.68;10.38;;;28.00;99.90;;;;;;5067391;28;20227;-81
2022/06/27 11:49:36;;;;;;;10.50;10.20;;;28.30;99.90;;;;;;5068757;28;21080;-81
2022/06/27 11:52:07;;;;;;;10.40;10.10;;;28.40;99.90;;;;;;5067068;28;20325;-81
2022/06/27 11:54:41;;;;;;;10.52;10.23;;;28.20;99.90;;;;;;5067297;28;20227;-81
2022/06/27 11:57:23;;;;;;;10.70;10.40;;;27.90;99.90;;;;;;5069289;28;20223;-81
2022/06/27 11:59:53;;;;;;;10.70;10.40;;;28.40;99.90;;;;;;5067540;28;20326;-81
2022/06/27 12:02:29;;;;;;;10.80;10.50;;;28.50;99.90;;;;;;5066740;28;20262;-81
2022/06/27 12:05:11;;;;;;;10.60;10.30;;;28.50;99.90;;;;;;5065726;28;20234;-80
2022/06/27 12:07:58;;;;;;;11.10;10.80;;;29.00;99.90;;;;;;5066657;28;20265;-80
2022/06/27 12:10:46;;;;;;;11.10;10.80;;;29.10;99.90;;;;;;5065423;28;20322;-81
2022/06/27 12:13:16;;;;;;;10.90;10.60;;;28.70;99.90;;;;;;5065264;28;20302;-81
2022/06/27 12:15:46;;;;;;;10.55;10.25;;;28.40;99.90;;;;;;5066325;28;20223;-80
2022/06/27 12:18:16;;;;;;;10.95;10.65;;;28.50;99.90;;;;;;5066508;28;20221;-81
2022/06/27 12:20:45;;;;;;;11.10;10.80;;;28.30;99.90;;;;;;5068249;28;20294;-81
2022/06/27 12:23:13;;;;;;;10.90;10.60;;;28.20;99.90;;;;;;5065275;28;20235;-80
2022/06/27 12:25:41;;;;;;;10.63;10.32;;;28.30;99.90;;;;;;5065150;28;20246;-81
2022/06/27 12:28:10;;;;;;;10.98;10.68;;;28.40;99.90;;;;;;5065570;28;20262;-81
2022/06/27 12:30:37;;;;;;;10.98;10.68;;;27.80;99.90;;;;;;5064198;28;20235;-82
2022/06/27 12:33:05;;;;;;;10.80;10.50;;;27.90;99.90;;;;;;5064335;28;20235;-82
2022/06/27 12:35:33;;;;;;;10.55;10.25;;;28.10;99.90;;;;;;5064317;28;20227;-82
2022/06/27 12:38:04;;;;;;;10.90;10.60;;;28.20;99.90;;;;;;5066146;28;20246;-82
2022/06/27 12:40:33;;;;;;;10.57;10.27;;;28.20;99.90;;;;;;5067664;28;20258;-81
2022/06/27 12:43:00;;;;;;;10.82;10.52;;;28.20;99.90;;;;;;5065684;28;20227;-82
2022/06/27 12:45:28;;;;;;;10.85;10.55;;;28.30;99.90;;;;;;5064879;28;20222;-82
2022/06/27 12:47:56;;;;;;;10.65;10.35;;;28.70;99.90;;;;;;5065090;28;20265;-82
2022/06/27 12:50:24;;;;;;;10.50;10.20;;;28.40;99.90;;;;;;5065325;28;20234;-82
2022/06/27 12:52:51;;;;;;;10.57;10.27;;;28.40;99.90;;;;;;5064311;28;20238;-82
2022/06/27 12:55:20;;;;;;;10.60;10.30;;;28.50;99.90;;;;;;5062939;28;20270;-82
2022/06/27 12:57:48;;;;;;;10.70;10.40;;;28.40;99.90;;;;;;5063125;28;20317;-81
2022/06/27 13:00:17;;;;;;;11.07;10.77;;;28.60;99.90;;;;;;5063972;28;20223;-82